Time;durP1;ratioP1;P1;durP2;ratioP2;P2;SDS_P1;SDS_P2;PMS_P1;PMS_P2;Temp;Humidity;BMP_temperature;BMP_pressure;BME280_temperature;BME280_humidity;BME280_pressure;Samples;Min_cycle;Max_cycle;Signal;HPM_P1;HPM_P2
2021/04/08 00:01:52;;;;;;;17.05;4.57;;;1.40;99.90;;;;;;5125664;27;20201;-65
2021/04/08 00:04:19;;;;;;;10.55;3.58;;;1.40;99.90;;;;;;5124584;27;20204;-66
2021/04/08 00:06:45;;;;;;;13.27;4.32;;;1.30;99.90;;;;;;5133952;27;20209;-65
2021/04/08 00:09:11;;;;;;;11.30;4.50;;;1.40;99.90;;;;;;5132828;27;20685;-66
2021/04/08 00:11:38;;;;;;;13.63;3.92;;;1.30;99.90;;;;;;5133839;27;20666;-66
2021/04/08 00:14:04;;;;;;;17.45;4.35;;;1.30;99.90;;;;;;5133524;27;20338;-65
2021/04/08 00:16:31;;;;;;;10.68;4.20;;;1.30;99.90;;;;;;5133151;27;20209;-66
2021/04/08 00:18:58;;;;;;;12.75;3.58;;;1.30;99.90;;;;;;5139658;27;20213;-66
2021/04/08 00:21:24;;;;;;;11.10;4.10;;;1.30;99.90;;;;;;5154051;27;20269;-65
2021/04/08 00:23:50;;;;;;;10.90;4.05;;;1.30;99.90;;;;;;5141046;27;20212;-66
2021/04/08 00:26:17;;;;;;;9.80;4.40;;;1.20;99.90;;;;;;5133544;27;20198;-65
2021/04/08 00:28:43;;;;;;;12.48;4.55;;;1.20;99.90;;;;;;5133114;27;20278;-65
2021/04/08 00:31:10;;;;;;;12.10;4.72;;;1.20;99.90;;;;;;5133787;27;20655;-66
2021/04/08 00:33:36;;;;;;;9.48;3.78;;;1.20;99.90;;;;;;5126785;27;20202;-65
2021/04/08 00:36:03;;;;;;;17.90;6.20;;;1.20;99.90;;;;;;5130887;27;20666;-65
2021/04/08 00:38:30;;;;;;;13.02;4.70;;;1.20;99.90;;;;;;5132266;27;20233;-66
2021/04/08 00:40:56;;;;;;;19.30;6.03;;;1.20;99.90;;;;;;5132824;27;20192;-66
2021/04/08 00:43:23;;;;;;;13.70;5.10;;;1.20;99.90;;;;;;5128533;27;20575;-67
2021/04/08 00:45:49;;;;;;;12.90;5.32;;;1.20;99.90;;;;;;5132307;27;20290;-65
2021/04/08 00:48:15;;;;;;;16.08;5.80;;;1.20;99.90;;;;;;5133131;27;20664;-65
2021/04/08 00:50:42;;;;;;;13.82;5.72;;;1.20;99.90;;;;;;5131428;27;20196;-67
2021/04/08 00:53:12;;;;;;;21.52;8.30;;;1.20;99.90;;;;;;5132802;27;20197;-65
2021/04/08 00:55:41;;;;;;;14.48;4.55;;;1.20;99.90;;;;;;5131430;27;20210;-66
2021/04/08 00:58:08;;;;;;;13.40;5.38;;;1.10;99.90;;;;;;5132970;27;20216;-66
2021/04/08 01:00:37;;;;;;;10.60;5.07;;;1.10;99.90;;;;;;5132403;27;20255;-66
2021/04/08 01:03:03;;;;;;;10.40;5.30;;;1.10;99.90;;;;;;5132498;28;20690;-65
2021/04/08 01:05:30;;;;;;;15.77;5.15;;;1.10;99.90;;;;;;5132411;27;20490;-67
2021/04/08 01:07:56;;;;;;;11.95;4.45;;;1.00;99.90;;;;;;5132063;27;20738;-65
2021/04/08 01:10:25;;;;;;;12.40;4.80;;;1.00;99.90;;;;;;5132238;27;20200;-67
2021/04/08 01:12:54;;;;;;;15.40;5.22;;;0.90;99.90;;;;;;5132905;27;20205;-65
2021/04/08 01:15:21;;;;;;;16.85;5.53;;;1.00;99.90;;;;;;5132083;27;20204;-66
2021/04/08 01:17:53;;;;;;;16.00;5.40;;;1.00;99.90;;;;;;5132966;27;20231;-66
2021/04/08 01:20:50;;;;;;;14.07;4.63;;;1.00;99.90;;;;;;5131991;27;20326;-66
2021/04/08 01:23:49;;;;;;;10.73;4.07;;;1.00;99.90;;;;;;5132693;27;20247;-66
2021/04/08 01:26:47;;;;;;;14.63;5.15;;;1.00;99.90;;;;;;5132197;27;20212;-65
2021/04/08 01:29:28;;;;;;;11.85;4.80;;;1.00;99.90;;;;;;5132273;27;20197;-66
2021/04/08 01:31:59;;;;;;;13.38;4.95;;;1.10;99.90;;;;;;5132334;27;20288;-67
2021/04/08 01:34:27;;;;;;;10.57;4.60;;;1.00;99.90;;;;;;5132523;27;20197;-65
2021/04/08 01:36:56;;;;;;;12.93;5.13;;;0.90;99.90;;;;;;5132303;27;20212;-66
2021/04/08 01:39:24;;;;;;;11.68;4.72;;;0.90;99.90;;;;;;5131618;27;20302;-65
2021/04/08 01:41:54;;;;;;;11.82;4.07;;;0.90;99.90;;;;;;5132973;28;20205;-65
2021/04/08 01:44:22;;;;;;;16.23;5.47;;;0.80;99.90;;;;;;5131932;28;20209;-66
2021/04/08 01:46:52;;;;;;;11.75;4.93;;;0.80;99.90;;;;;;5132848;27;20204;-65
2021/04/08 01:49:20;;;;;;;12.60;5.70;;;0.80;99.90;;;;;;5132001;27;20198;-64
2021/04/08 01:51:47;;;;;;;12.20;5.15;;;0.90;99.90;;;;;;5132341;27;20213;-67
2021/04/08 01:54:14;;;;;;;10.27;5.32;;;0.90;99.90;;;;;;5132634;27;20209;-67
2021/04/08 01:56:42;;;;;;;14.93;5.63;;;0.90;99.90;;;;;;5131390;27;20226;-67
2021/04/08 01:59:14;;;;;;;12.82;5.72;;;0.90;99.90;;;;;;5131981;28;20235;-65
2021/04/08 02:01:43;;;;;;;12.75;5.53;;;0.90;99.90;;;;;;5131949;27;20282;-66
2021/04/08 02:04:11;;;;;;;15.38;5.68;;;0.90;99.90;;;;;;5135567;27;20751;-66
2021/04/08 02:06:41;;;;;;;13.68;5.90;;;0.80;99.90;;;;;;5135710;27;20224;-65
2021/04/08 02:09:08;;;;;;;15.10;6.05;;;0.80;99.90;;;;;;5135598;27;20238;-65
2021/04/08 02:11:37;;;;;;;10.73;5.20;;;0.80;99.90;;;;;;5136069;27;20207;-67
2021/04/08 02:14:05;;;;;;;16.92;5.93;;;0.80;99.90;;;;;;5135990;27;20214;-66
2021/04/08 02:16:31;;;;;;;11.70;5.80;;;0.70;99.90;;;;;;5135495;27;20675;-66
2021/04/08 02:19:00;;;;;;;18.10;5.93;;;0.60;99.90;;;;;;5135757;27;20634;-67
2021/04/08 02:21:28;;;;;;;12.48;5.82;;;0.60;99.90;;;;;;5136272;27;20202;-65
2021/04/08 02:23:56;;;;;;;12.73;5.30;;;0.60;99.90;;;;;;5136139;27;20200;-66
2021/04/08 02:26:24;;;;;;;14.80;7.25;;;0.60;99.90;;;;;;5134898;27;20208;-66
2021/04/08 02:28:51;;;;;;;10.68;5.40;;;0.60;99.90;;;;;;5135733;27;20201;-66
2021/04/08 02:31:19;;;;;;;12.52;5.50;;;0.60;99.90;;;;;;5135726;27;20205;-66
2021/04/08 02:33:45;;;;;;;14.00;5.85;;;0.50;99.90;;;;;;5135412;27;20206;-65
2021/04/08 02:36:13;;;;;;;11.68;6.13;;;0.50;99.90;;;;;;5135342;27;20675;-66
2021/04/08 02:38:39;;;;;;;17.40;6.47;;;0.50;99.90;;;;;;5134645;27;20222;-66
2021/04/08 02:41:08;;;;;;;18.10;7.32;;;0.60;99.90;;;;;;5135556;27;20301;-66
2021/04/08 02:43:34;;;;;;;16.70;7.90;;;0.60;99.90;;;;;;5135205;27;20674;-64
2021/04/08 02:46:01;;;;;;;19.80;7.80;;;0.60;99.90;;;;;;5135229;27;20342;-65
2021/04/08 02:48:28;;;;;;;16.38;6.28;;;0.70;99.90;;;;;;5134869;27;20291;-66
2021/04/08 02:50:56;;;;;;;14.40;6.50;;;0.60;99.90;;;;;;5135884;27;20207;-66
2021/04/08 02:53:27;;;;;;;13.88;5.88;;;0.70;99.90;;;;;;5135266;27;20204;-67
2021/04/08 02:56:02;;;;;;;16.02;7.07;;;0.70;99.90;;;;;;5134589;27;20292;-66
2021/04/08 02:58:32;;;;;;;18.08;7.30;;;0.70;99.90;;;;;;5134821;27;20306;-65
2021/04/08 03:01:06;;;;;;;15.23;7.22;;;0.80;99.90;;;;;;5134839;27;20272;-66
2021/04/08 03:03:37;;;;;;;14.05;6.53;;;0.80;99.90;;;;;;5134845;27;20204;-66
2021/04/08 03:06:06;;;;;;;19.30;7.30;;;0.80;99.90;;;;;;5134835;27;20252;-66
2021/04/08 03:08:34;;;;;;;21.42;6.65;;;0.70;99.90;;;;;;5134718;27;20204;-65
2021/04/08 03:11:02;;;;;;;20.42;5.78;;;0.70;99.90;;;;;;5134883;27;20208;-65
2021/04/08 03:13:34;;;;;;;11.98;5.93;;;0.70;99.90;;;;;;5134328;27;20208;-65
2021/04/08 03:16:03;;;;;;;15.18;6.30;;;0.70;99.90;;;;;;5133730;27;20726;-67
2021/04/08 03:18:32;;;;;;;17.45;5.82;;;0.70;99.90;;;;;;5134645;27;20281;-65
2021/04/08 03:20:59;;;;;;;12.57;5.68;;;0.70;99.90;;;;;;5134575;27;20237;-66
2021/04/08 03:23:26;;;;;;;15.38;6.03;;;0.70;99.90;;;;;;5134168;27;20197;-66
2021/04/08 03:25:54;;;;;;;11.63;5.70;;;0.70;99.90;;;;;;5136199;27;20219;-66
2021/04/08 03:28:22;;;;;;;13.05;6.22;;;0.70;99.90;;;;;;5142515;27;20627;-67
2021/04/08 03:30:50;;;;;;;23.05;7.75;;;0.70;99.90;;;;;;5139191;27;20194;-66
2021/04/08 03:33:17;;;;;;;13.35;5.40;;;0.60;99.90;;;;;;5136570;27;20226;-66
2021/04/08 03:35:46;;;;;;;12.25;6.30;;;0.70;99.90;;;;;;5154809;27;20204;-67
2021/04/08 03:38:14;;;;;;;23.50;6.70;;;0.60;99.90;;;;;;5140557;27;20215;-68
2021/04/08 03:40:40;;;;;;;17.15;7.70;;;0.60;99.90;;;;;;5134090;27;20241;-66
2021/04/08 03:43:07;;;;;;;20.33;7.60;;;0.60;99.90;;;;;;5133789;27;20207;-68
2021/04/08 03:45:33;;;;;;;17.15;6.85;;;0.50;99.90;;;;;;5133985;27;20287;-66
2021/04/08 03:48:01;;;;;;;17.90;6.80;;;0.50;99.90;;;;;;5134405;27;20210;-66
2021/04/08 03:50:29;;;;;;;14.75;6.30;;;0.60;99.90;;;;;;5134158;27;20201;-66
2021/04/08 03:52:56;;;;;;;17.35;6.88;;;0.60;99.90;;;;;;5134162;27;20196;-66
2021/04/08 03:55:25;;;;;;;20.98;7.35;;;0.60;99.90;;;;;;5132987;27;20202;-67
2021/04/08 03:57:53;;;;;;;16.15;6.72;;;0.60;99.90;;;;;;5133296;27;20217;-67
2021/04/08 04:00:20;;;;;;;14.82;5.85;;;0.60;99.90;;;;;;5133750;27;20241;-68
2021/04/08 04:02:47;;;;;;;14.13;6.93;;;0.60;99.90;;;;;;5133681;27;20095;-66
2021/04/08 04:05:15;;;;;;;18.83;6.85;;;0.60;99.90;;;;;;5133112;27;20666;-65
2021/04/08 04:07:49;;;;;;;13.80;5.68;;;0.60;99.90;;;;;;5133364;27;20199;-66
2021/04/08 04:10:17;;;;;;;13.32;6.30;;;0.60;99.90;;;;;;5133534;27;20668;-67
2021/04/08 04:12:44;;;;;;;14.23;6.95;;;0.60;99.90;;;;;;5133991;27;20453;-66
2021/04/08 04:15:12;;;;;;;19.00;6.25;;;0.50;99.90;;;;;;5132843;27;20249;-65
2021/04/08 04:17:38;;;;;;;20.38;7.50;;;-0.20;99.90;;;;;;5133309;27;20208;-65
2021/04/08 04:20:06;;;;;;;18.35;6.90;;;0.60;99.90;;;;;;5133204;27;20569;-64
2021/04/08 04:22:34;;;;;;;16.15;6.97;;;0.70;99.90;;;;;;5133426;27;20642;-65
2021/04/08 04:25:00;;;;;;;16.77;6.40;;;0.70;99.90;;;;;;5132768;27;20256;-64
2021/04/08 04:27:26;;;;;;;14.57;5.53;;;0.70;99.90;;;;;;5132973;27;20202;-65
2021/04/08 04:29:53;;;;;;;12.75;4.75;;;0.70;99.90;;;;;;5133600;27;20611;-67
2021/04/08 04:32:19;;;;;;;15.13;5.40;;;0.70;99.90;;;;;;5132765;27;20194;-65
2021/04/08 04:34:46;;;;;;;13.45;5.95;;;0.70;99.90;;;;;;5133486;27;20294;-64
2021/04/08 04:37:13;;;;;;;15.02;6.65;;;0.60;99.90;;;;;;5132157;27;20194;-65
2021/04/08 04:39:40;;;;;;;10.65;4.85;;;0.60;99.90;;;;;;5132790;27;20695;-66
2021/04/08 04:42:08;;;;;;;9.18;4.50;;;0.70;99.90;;;;;;5133326;27;20376;-66
2021/04/08 04:44:36;;;;;;;13.02;5.20;;;0.70;99.90;;;;;;5133100;27;20206;-66
2021/04/08 04:47:03;;;;;;;14.55;6.15;;;0.80;99.90;;;;;;5147347;27;20204;-67
2021/04/08 04:49:29;;;;;;;13.00;5.07;;;0.90;99.90;;;;;;5135466;27;20220;-65
2021/04/08 04:51:56;;;;;;;14.48;6.32;;;1.00;99.90;;;;;;5132119;27;20231;-65
2021/04/08 04:54:22;;;;;;;15.05;5.03;;;1.10;99.90;;;;;;5145173;27;20204;-66
2021/04/08 04:56:49;;;;;;;13.55;5.80;;;1.20;99.90;;;;;;5145324;27;20225;-65
2021/04/08 04:59:16;;;;;;;15.60;4.88;;;1.30;99.90;;;;;;5132899;27;20259;-65
2021/04/08 05:01:42;;;;;;;16.50;4.72;;;1.40;99.90;;;;;;5132444;27;20195;-67
2021/04/08 05:04:09;;;;;;;18.48;5.65;;;1.50;99.90;;;;;;5133362;27;20289;-65
2021/04/08 05:06:35;;;;;;;11.68;4.57;;;1.60;99.90;;;;;;5132777;27;20229;-66
2021/04/08 05:09:03;;;;;;;13.40;5.18;;;1.60;99.90;;;;;;5133357;27;20339;-67
2021/04/08 05:11:29;;;;;;;15.90;5.88;;;1.70;99.90;;;;;;5132946;27;20197;-67
2021/04/08 05:13:56;;;;;;;17.83;6.03;;;1.80;99.90;;;;;;5133123;27;20276;-65
2021/04/08 05:16:23;;;;;;;14.88;5.80;;;1.90;99.90;;;;;;5132811;27;20208;-66
2021/04/08 05:18:49;;;;;;;17.60;8.10;;;1.80;99.90;;;;;;5132890;28;20213;-67
2021/04/08 05:21:16;;;;;;;11.52;4.47;;;1.90;99.90;;;;;;5132550;27;20317;-67
2021/04/08 05:23:42;;;;;;;16.02;5.65;;;2.00;99.90;;;;;;5132927;27;20734;-66
2021/04/08 05:26:08;;;;;;;13.77;5.47;;;1.90;99.90;;;;;;5132327;27;20290;-67
2021/04/08 05:28:35;;;;;;;14.50;5.03;;;2.00;99.90;;;;;;5127081;27;20209;-66
2021/04/08 05:31:02;;;;;;;11.45;5.13;;;2.10;99.90;;;;;;5132179;27;20281;-65
2021/04/08 05:33:28;;;;;;;14.25;4.97;;;2.10;99.90;;;;;;5128097;27;20201;-67
2021/04/08 05:35:55;;;;;;;16.67;7.85;;;2.20;99.90;;;;;;5132203;27;20467;-67
2021/04/08 05:38:21;;;;;;;15.50;6.00;;;2.20;99.90;;;;;;5134358;27;20221;-67
2021/04/08 05:40:47;;;;;;;14.98;4.18;;;2.20;99.90;;;;;;5135066;27;20470;-66
2021/04/08 05:43:15;;;;;;;9.98;3.75;;;2.40;99.90;;;;;;5136376;27;20198;-67
2021/04/08 05:45:41;;;;;;;12.75;5.05;;;2.40;99.90;;;;;;5136031;27;20277;-67
2021/04/08 05:48:09;;;;;;;13.80;4.05;;;2.50;99.90;;;;;;5133965;27;20661;-66
2021/04/08 05:50:35;;;;;;;16.27;4.25;;;2.50;99.90;;;;;;5134904;27;20281;-63
2021/04/08 05:53:02;;;;;;;19.45;4.95;;;2.60;99.90;;;;;;5133493;27;20206;-66
2021/04/08 05:55:28;;;;;;;14.27;4.30;;;2.70;99.90;;;;;;5134449;27;20285;-66
2021/04/08 05:57:54;;;;;;;11.55;3.90;;;2.80;99.90;;;;;;5135493;27;20682;-64
2021/04/08 06:00:21;;;;;;;13.77;4.57;;;2.90;99.90;;;;;;5135760;27;20205;-63
2021/04/08 06:02:48;;;;;;;9.50;3.42;;;3.00;99.90;;;;;;5135221;27;20193;-64
2021/04/08 06:05:16;;;;;;;11.10;3.70;;;3.10;99.90;;;;;;5131752;27;20329;-63
2021/04/08 06:07:43;;;;;;;11.63;5.00;;;3.20;99.90;;;;;;5130656;27;20201;-68
2021/04/08 06:10:10;;;;;;;13.63;4.47;;;3.30;99.90;;;;;;5135153;27;20659;-63
2021/04/08 06:12:40;;;;;;;11.70;4.50;;;3.20;99.90;;;;;;5135633;27;20825;-63
2021/04/08 06:15:08;;;;;;;15.27;4.93;;;3.10;99.90;;;;;;5132588;27;20582;-65
2021/04/08 06:17:34;;;;;;;13.50;4.65;;;3.20;99.90;;;;;;5135583;27;20233;-64
2021/04/08 06:20:00;;;;;;;13.52;4.90;;;3.30;99.90;;;;;;5135659;27;20229;-63
2021/04/08 06:22:27;;;;;;;14.13;5.57;;;3.50;99.90;;;;;;5135751;27;20640;-63
2021/04/08 06:24:54;;;;;;;13.03;5.13;;;3.50;99.90;;;;;;5135917;27;20448;-66
2021/04/08 06:27:20;;;;;;;10.68;4.05;;;3.70;99.90;;;;;;5135454;27;20816;-64
2021/04/08 06:29:46;;;;;;;14.77;4.33;;;3.70;99.90;;;;;;5135487;27;20195;-64
2021/04/08 06:32:13;;;;;;;16.75;4.35;;;3.80;99.90;;;;;;5134671;27;20765;-63
2021/04/08 06:34:39;;;;;;;14.57;6.03;;;3.80;99.90;;;;;;5132370;27;20824;-63
2021/04/08 06:37:05;;;;;;;10.53;4.80;;;3.80;99.90;;;;;;5134350;27;20198;-67
2021/04/08 06:39:35;;;;;;;15.13;5.90;;;3.90;99.90;;;;;;5132110;27;20939;-64
2021/04/08 06:42:01;;;;;;;10.73;5.00;;;4.00;99.90;;;;;;5133730;27;20640;-69
2021/04/08 06:44:29;;;;;;;14.40;4.90;;;4.10;99.90;;;;;;5133091;27;20801;-66
2021/04/08 06:47:00;;;;;;;12.10;5.43;;;4.00;99.90;;;;;;5133837;27;20936;-64
2021/04/08 06:49:34;;;;;;;12.40;5.10;;;4.10;99.90;;;;;;5132378;27;20568;-66
2021/04/08 06:52:01;;;;;;;16.50;5.30;;;4.30;99.90;;;;;;5133665;27;20530;-63
2021/04/08 06:54:28;;;;;;;16.27;4.77;;;4.40;99.90;;;;;;5132470;27;20810;-63
2021/04/08 06:56:56;;;;;;;10.77;4.60;;;4.20;99.90;;;;;;5133396;27;20895;-65
2021/04/08 06:59:23;;;;;;;11.03;4.70;;;4.40;99.90;;;;;;5133605;27;20492;-63
2021/04/08 07:01:49;;;;;;;16.63;5.50;;;4.60;99.90;;;;;;5132849;27;20537;-63
2021/04/08 07:04:16;;;;;;;16.60;5.70;;;4.90;99.90;;;;;;5131096;27;20815;-64
2021/04/08 07:06:43;;;;;;;14.83;5.80;;;5.00;99.90;;;;;;5133622;27;20449;-64
2021/04/08 07:09:11;;;;;;;14.00;5.13;;;5.00;99.90;;;;;;5130994;27;20446;-62
2021/04/08 07:11:39;;;;;;;12.10;5.40;;;5.40;99.90;;;;;;5130881;27;20469;-63
2021/04/08 07:14:07;;;;;;;13.93;6.17;;;5.20;99.90;;;;;;5133937;27;20474;-64
2021/04/08 07:16:34;;;;;;;14.23;6.23;;;5.40;99.90;;;;;;5134102;27;20849;-63
2021/04/08 07:19:04;;;;;;;22.00;6.97;;;5.50;99.90;;;;;;5133699;27;20552;-66
2021/04/08 07:21:32;;;;;;;19.07;6.53;;;5.40;99.90;;;;;;5133950;27;20537;-63
2021/04/08 07:24:13;;;;;;;14.30;6.67;;;5.60;99.90;;;;;;5134980;27;20442;-63
2021/04/08 07:27:01;;;;;;;14.23;6.90;;;5.70;99.90;;;;;;5113639;28;21025;-67
2021/04/08 07:29:48;;;;;;;17.20;7.70;;;5.50;99.90;;;;;;5114128;28;20534;-63
2021/04/08 07:32:20;;;;;;;19.17;7.80;;;5.60;99.90;;;;;;5124916;27;20446;-63
2021/04/08 07:34:48;;;;;;;12.90;6.67;;;5.80;99.90;;;;;;5131989;27;20520;-65
2021/04/08 07:37:20;;;;;;;13.90;6.17;;;5.70;99.90;;;;;;5133630;27;20443;-65
2021/04/08 07:39:46;;;;;;;13.40;7.00;;;6.00;99.90;;;;;;5132156;27;20645;-63
2021/04/08 07:42:14;;;;;;;19.60;7.90;;;6.00;99.90;;;;;;5133122;27;20443;-67
2021/04/08 07:44:45;;;;;;;11.90;6.10;;;6.00;99.90;;;;;;5134119;27;20528;-64
2021/04/08 07:47:21;;;;;;;15.50;6.90;;;6.10;99.90;;;;;;5133776;27;20523;-64
2021/04/08 07:49:49;;;;;;;15.00;6.40;;;6.10;99.90;;;;;;5124543;27;20477;-63
2021/04/08 07:52:19;;;;;;;13.40;6.43;;;6.30;99.90;;;;;;5133901;27;20447;-68
2021/04/08 07:55:04;;;;;;;17.27;6.47;;;6.60;99.90;;;;;;5131099;27;20457;-64
2021/04/08 07:57:32;;;;;;;20.17;6.87;;;7.20;99.90;;;;;;5131649;27;20488;-63
2021/04/08 08:00:19;;;;;;;17.40;6.70;;;7.70;99.90;;;;;;5131865;27;20845;-63
2021/04/08 08:02:47;;;;;;;14.47;5.63;;;8.50;99.90;;;;;;5133030;27;20548;-63
2021/04/08 08:05:25;;;;;;;13.10;6.00;;;8.90;99.90;;;;;;5133189;27;20781;-63
2021/04/08 08:07:53;;;;;;;14.77;5.47;;;8.90;99.90;;;;;;5133385;27;20472;-63
2021/04/08 08:10:24;;;;;;;14.90;5.80;;;8.90;99.90;;;;;;5131315;27;20450;-65
2021/04/08 08:12:51;;;;;;;13.10;5.20;;;8.80;99.90;;;;;;5132943;27;20504;-63
2021/04/08 08:15:23;;;;;;;15.93;4.53;;;9.00;99.90;;;;;;5133187;27;20436;-64
2021/04/08 08:17:52;;;;;;;11.47;4.70;;;9.00;99.90;;;;;;5130682;27;20489;-67
2021/04/08 08:20:20;;;;;;;10.90;4.67;;;10.10;99.90;;;;;;5131987;27;20498;-63
2021/04/08 08:22:47;;;;;;;13.50;4.80;;;10.80;99.90;;;;;;5130708;27;20452;-66
2021/04/08 08:25:15;;;;;;;12.33;4.57;;;12.00;99.90;;;;;;5132932;27;20445;-65
2021/04/08 08:27:47;;;;;;;11.97;5.00;;;12.60;99.90;;;;;;5133356;27;20794;-63
2021/04/08 08:30:17;;;;;;;10.83;6.27;;;13.10;99.90;;;;;;5132689;27;20447;-62
2021/04/08 08:33:09;;;;;;;9.50;4.90;;;13.70;99.90;;;;;;5131767;27;20473;-63
2021/04/08 08:35:36;;;;;;;9.07;4.30;;;14.80;98.30;;;;;;5112742;28;20492;-63
2021/04/08 08:38:12;;;;;;;12.93;5.00;;;14.40;98.00;;;;;;5126201;27;20437;-66
2021/04/08 08:40:40;;;;;;;12.90;5.47;;;14.40;95.90;;;;;;5129733;27;20531;-62
2021/04/08 08:43:06;;;;;;;10.30;4.53;;;14.90;98.80;;;;;;5132618;27;20807;-63
2021/04/08 08:45:34;;;;;;;8.93;3.83;;;16.50;94.10;;;;;;5132266;27;20451;-64
2021/04/08 08:48:04;;;;;;;8.13;4.07;;;17.10;90.10;;;;;;5130364;27;20459;-68
2021/04/08 08:50:32;;;;;;;9.10;4.37;;;16.50;88.30;;;;;;5132102;27;20444;-63
2021/04/08 08:53:01;;;;;;;14.30;5.10;;;16.60;83.30;;;;;;5132742;27;20452;-64
2021/04/08 08:55:28;;;;;;;11.10;4.20;;;16.80;82.70;;;;;;5132832;27;20933;-66
2021/04/08 08:57:56;;;;;;;12.47;4.70;;;16.30;79.00;;;;;;5123038;27;20453;-67
2021/04/08 09:00:24;;;;;;;11.20;3.70;;;15.70;78.80;;;;;;5125918;27;20494;-64
2021/04/08 09:02:54;;;;;;;8.43;3.53;;;15.00;80.60;;;;;;5122343;27;20966;-64
2021/04/08 09:05:22;;;;;;;13.10;3.90;;;14.40;77.30;;;;;;5131711;27;20453;-65
2021/04/08 09:07:51;;;;;;;9.47;3.77;;;13.60;81.60;;;;;;5131924;27;20960;-63
2021/04/08 09:10:23;;;;;;;8.00;3.40;;;14.00;81.40;;;;;;5131417;27;20453;-66
2021/04/08 09:12:50;;;;;;;7.07;3.40;;;13.80;85.90;;;;;;5134247;27;20448;-67
2021/04/08 09:15:17;;;;;;;6.60;3.33;;;13.90;84.60;;;;;;5137198;27;20451;-64
2021/04/08 09:17:46;;;;;;;9.50;3.83;;;13.50;76.90;;;;;;5137171;27;20453;-63
2021/04/08 09:20:15;;;;;;;10.20;3.43;;;13.60;79.20;;;;;;5136546;27;20559;-63
2021/04/08 09:22:54;;;;;;;10.13;3.83;;;13.60;78.40;;;;;;5136865;27;20448;-61
2021/04/08 09:25:22;;;;;;;10.23;3.50;;;12.70;77.30;;;;;;5136928;27;20453;-60
2021/04/08 09:27:52;;;;;;;10.17;3.43;;;12.20;80.50;;;;;;5136474;27;20439;-66
2021/04/08 09:30:43;;;;;;;8.87;3.50;;;11.60;78.20;;;;;;5134426;27;20518;-63
2021/04/08 09:33:10;;;;;;;7.30;2.90;;;11.40;86.40;;;;;;5135721;27;20868;-63
2021/04/08 09:35:37;;;;;;;13.17;3.90;;;12.60;87.70;;;;;;5136820;27;20448;-63
2021/04/08 09:38:15;;;;;;;8.13;3.03;;;13.80;85.10;;;;;;5136298;27;20523;-65
2021/04/08 09:40:49;;;;;;;9.67;3.13;;;14.10;76.20;;;;;;5130780;27;20527;-62
2021/04/08 09:43:17;;;;;;;6.77;2.07;;;13.10;74.30;;;;;;5135919;27;20967;-62
2021/04/08 09:45:45;;;;;;;7.37;1.47;;;12.30;69.20;;;;;;5135925;27;20819;-66
2021/04/08 09:48:13;;;;;;;6.53;1.93;;;11.20;68.50;;;;;;5136004;27;20539;-61
2021/04/08 09:50:44;;;;;;;7.77;2.83;;;10.20;70.50;;;;;;5133282;27;20742;-61
2021/04/08 09:53:10;;;;;;;5.80;1.80;;;9.40;73.80;;;;;;5128009;27;20448;-61
2021/04/08 09:55:38;;;;;;;5.60;1.47;;;8.80;74.50;;;;;;5135698;27;20452;-61
2021/04/08 09:58:06;;;;;;;9.00;2.13;;;8.70;73.50;;;;;;5136201;27;20581;-62
2021/04/08 10:00:33;;;;;;;8.50;2.50;;;8.60;75.30;;;;;;5135683;27;20476;-64
2021/04/08 10:03:02;;;;;;;8.97;2.87;;;8.60;78.10;;;;;;5136070;27;20995;-63
2021/04/08 10:05:32;;;;;;;8.37;2.40;;;8.90;82.70;;;;;;5135692;27;20500;-62
2021/04/08 10:07:59;;;;;;;6.60;2.40;;;9.00;84.50;;;;;;5135735;27;20450;-62
2021/04/08 10:10:40;;;;;;;7.17;2.20;;;9.40;79.30;;;;;;5135712;27;20543;-64
2021/04/08 10:13:17;;;;;;;8.77;2.70;;;10.10;78.10;;;;;;5136133;27;20445;-62
2021/04/08 10:15:44;;;;;;;8.30;3.07;;;11.00;74.60;;;;;;5135534;27;20454;-65
2021/04/08 10:18:14;;;;;;;8.60;2.47;;;10.90;74.50;;;;;;5136122;27;20535;-61
2021/04/08 10:20:41;;;;;;;6.63;2.80;;;10.60;73.40;;;;;;5134971;27;20547;-61
2021/04/08 10:23:08;;;;;;;7.47;2.60;;;10.50;75.60;;;;;;5123859;27;20906;-62
2021/04/08 10:25:35;;;;;;;9.07;2.87;;;9.80;78.40;;;;;;5125795;27;20462;-62
2021/04/08 10:28:02;;;;;;;8.03;2.50;;;10.10;80.40;;;;;;5133304;27;20456;-62
2021/04/08 10:30:35;;;;;;;7.70;2.30;;;11.00;79.20;;;;;;5135431;27;20527;-62
2021/04/08 10:33:01;;;;;;;7.38;2.40;;;11.00;73.00;;;;;;5135142;27;20528;-63
2021/04/08 10:35:29;;;;;;;7.80;2.30;;;11.80;70.20;;;;;;5134919;27;20206;-61
2021/04/08 10:38:01;;;;;;;6.60;2.90;;;11.60;70.90;;;;;;5135139;27;20452;-62
2021/04/08 10:40:28;;;;;;;6.27;2.17;;;12.30;67.90;;;;;;5135316;27;20498;-61
2021/04/08 10:43:12;;;;;;;6.60;2.03;;;13.20;64.10;;;;;;5133636;27;20998;-64
2021/04/08 10:45:39;;;;;;;6.23;2.07;;;14.60;64.20;;;;;;5134667;27;20783;-62
2021/04/08 10:48:09;;;;;;;7.63;2.30;;;14.90;63.80;;;;;;5135637;27;20444;-63
2021/04/08 10:50:35;;;;;;;6.07;2.73;;;17.10;58.50;;;;;;5135368;27;20462;-62
2021/04/08 10:53:02;;;;;;;7.20;2.30;;;17.60;59.00;;;;;;5134586;27;20440;-62
2021/04/08 10:55:29;;;;;;;6.67;2.40;;;16.50;58.30;;;;;;5134978;27;20861;-62
2021/04/08 10:57:55;;;;;;;5.80;2.40;;;14.90;57.20;;;;;;5135270;27;20499;-64
2021/04/08 11:00:24;;;;;;;8.43;2.80;;;13.80;57.00;;;;;;5135481;27;20519;-62
2021/04/08 11:02:51;;;;;;;7.87;2.53;;;13.10;59.40;;;;;;5132571;27;20472;-62
2021/04/08 11:05:19;;;;;;;8.60;3.23;;;12.60;60.80;;;;;;5132911;27;20496;-62
2021/04/08 11:07:48;;;;;;;7.83;3.80;;;11.80;62.60;;;;;;5133824;27;20448;-66
2021/04/08 11:10:17;;;;;;;8.00;3.80;;;11.50;62.80;;;;;;5131630;27;20449;-64
2021/04/08 11:12:46;;;;;;;8.07;3.67;;;11.10;64.50;;;;;;5130547;27;20464;-61
2021/04/08 11:15:13;;;;;;;8.83;3.53;;;10.60;67.90;;;;;;5132893;27;20456;-63
2021/04/08 11:17:44;;;;;;;7.00;3.00;;;10.20;65.30;;;;;;5132902;27;20476;-62
2021/04/08 11:20:12;;;;;;;9.87;3.60;;;10.10;67.00;;;;;;5132832;27;20481;-61
2021/04/08 11:22:43;;;;;;;6.17;3.20;;;9.90;69.70;;;;;;5133553;27;20941;-63
2021/04/08 11:25:12;;;;;;;9.00;3.60;;;9.80;69.60;;;;;;5129749;27;20457;-64
2021/04/08 11:27:43;;;;;;;9.67;3.40;;;9.70;70.20;;;;;;5135402;27;20452;-67
2021/04/08 11:30:11;;;;;;;12.00;3.00;;;9.50;69.90;;;;;;5130188;27;20456;-62
2021/04/08 11:32:49;;;;;;;11.70;3.33;;;9.40;68.90;;;;;;5134117;27;20433;-61
2021/04/08 11:35:30;;;;;;;7.40;3.70;;;9.40;69.50;;;;;;5133730;27;20482;-63
2021/04/08 11:38:13;;;;;;;6.23;2.97;;;9.60;70.10;;;;;;5134720;27;20511;-62
2021/04/08 11:40:41;;;;;;;7.00;3.00;;;9.80;66.40;;;;;;5134412;27;20504;-63
2021/04/08 11:43:25;;;;;;;6.90;3.37;;;10.80;65.60;;;;;;5129294;27;20553;-62
2021/04/08 11:45:52;;;;;;;8.83;2.90;;;11.80;66.00;;;;;;5133381;27;20527;-65
2021/04/08 11:48:22;;;;;;;7.20;3.00;;;12.10;62.40;;;;;;5132762;27;20539;-67
2021/04/08 11:50:49;;;;;;;7.20;3.13;;;11.70;61.40;;;;;;5133019;27;20452;-62
2021/04/08 11:53:16;;;;;;;9.03;3.43;;;11.30;66.70;;;;;;5134065;27;20528;-62
2021/04/08 11:55:44;;;;;;;6.47;3.30;;;11.00;62.30;;;;;;5134312;27;20436;-64
2021/04/08 11:58:12;;;;;;;13.20;3.07;;;10.90;62.30;;;;;;5133430;27;20448;-62
2021/04/08 12:00:41;;;;;;;7.20;3.57;;;10.90;62.20;;;;;;5133761;27;20567;-63
2021/04/08 12:03:18;;;;;;;7.97;3.77;;;10.70;63.40;;;;;;5133192;27;20528;-63
2021/04/08 12:05:46;;;;;;;12.03;4.03;;;10.80;63.00;;;;;;5133281;27;20876;-61
2021/04/08 12:08:13;;;;;;;5.97;3.60;;;10.60;64.20;;;;;;5133776;27;20452;-63
2021/04/08 12:10:40;;;;;;;6.90;3.40;;;10.60;66.10;;;;;;5132781;27;20441;-65
2021/04/08 12:13:09;;;;;;;8.33;3.73;;;10.50;65.10;;;;;;5133105;27;20472;-62
2021/04/08 12:15:42;;;;;;;7.07;3.70;;;10.40;68.70;;;;;;5130639;27;20821;-62
2021/04/08 12:18:18;;;;;;;10.40;4.40;;;10.50;67.30;;;;;;5132997;27;21182;-61
2021/04/08 12:20:48;;;;;;;6.50;3.47;;;10.70;66.10;;;;;;5133184;27;20567;-61
2021/04/08 12:23:17;;;;;;;9.37;3.40;;;11.70;63.70;;;;;;5132993;27;20481;-65
2021/04/08 12:25:46;;;;;;;6.07;2.77;;;14.80;62.90;;;;;;5133312;27;20445;-62
2021/04/08 12:28:13;;;;;;;6.50;3.43;;;16.20;58.10;;;;;;5133006;27;20641;-62
2021/04/08 12:30:46;;;;;;;6.40;3.60;;;14.70;57.70;;;;;;5129015;27;20654;-64
2021/04/08 12:33:16;;;;;;;9.67;3.40;;;14.10;57.20;;;;;;5133061;27;21039;-62
2021/04/08 12:35:43;;;;;;;7.03;3.20;;;13.60;55.60;;;;;;5132087;27;20448;-62
2021/04/08 12:38:11;;;;;;;7.43;3.43;;;13.50;55.90;;;;;;5132192;27;20444;-62
2021/04/08 12:40:37;;;;;;;6.53;3.07;;;14.90;55.90;;;;;;5132746;27;21200;-62
2021/04/08 12:43:04;;;;;;;6.70;3.10;;;15.10;54.60;;;;;;5132179;27;20535;-62
2021/04/08 12:45:30;;;;;;;7.40;3.40;;;15.70;56.90;;;;;;5132572;27;20489;-63
2021/04/08 12:47:56;;;;;;;6.20;3.40;;;16.80;53.70;;;;;;5132268;27;20444;-63
2021/04/08 12:50:23;;;;;;;8.23;3.27;;;16.10;51.60;;;;;;5131597;27;20460;-65
2021/04/08 12:52:49;;;;;;;5.57;3.07;;;15.50;53.00;;;;;;5132429;27;20682;-63
2021/04/08 12:55:17;;;;;;;7.60;3.93;;;15.10;53.20;;;;;;5132902;27;20440;-62
2021/04/08 12:57:43;;;;;;;7.10;4.47;;;15.00;53.70;;;;;;5132906;27;20807;-63